createdAt,value
2023-08-17T00:01:15.460Z,42.3
2023-08-17T00:02:31.746Z,43
2023-08-17T00:03:48.047Z,42.7
2023-08-17T00:05:04.340Z,42.8
2023-08-17T00:06:20.621Z,43.3
2023-08-17T00:07:35.943Z,42.7
2023-08-17T00:08:52.245Z,42.3
2023-08-17T00:10:08.544Z,43
2023-08-17T00:11:24.836Z,42.5
2023-08-17T00:12:41.118Z,41
2023-08-17T00:13:57.428Z,43
2023-08-17T00:15:13.724Z,41.2
2023-08-17T00:16:30.004Z,41.4
2023-08-17T00:17:46.297Z,41.4
2023-08-17T00:19:02.604Z,41.7
2023-08-17T00:20:18.881Z,41
2023-08-17T00:21:35.191Z,41.4
2023-08-17T00:22:51.483Z,41.8
2023-08-17T00:24:06.791Z,40.9
2023-08-17T00:25:23.078Z,43
2023-08-17T00:26:39.370Z,41.2
2023-08-17T00:27:55.680Z,41
2023-08-17T00:29:11.973Z,40.7
2023-08-17T00:30:28.264Z,41.7
2023-08-17T00:31:44.561Z,41.4
2023-08-17T00:33:00.838Z,40.9
2023-08-17T00:34:17.134Z,42.5
2023-08-17T00:35:33.444Z,41
2023-08-17T00:36:49.722Z,41
2023-08-17T00:39:22.309Z,43.6
2023-08-17T00:40:37.637Z,41
2023-08-17T00:41:53.914Z,41.2
2023-08-17T00:43:10.214Z,42.2
2023-08-17T00:44:26.513Z,41.2
2023-08-17T00:45:42.813Z,40.9
2023-08-17T00:46:59.109Z,40.9
2023-08-17T00:48:15.393Z,41.4
2023-08-17T00:49:31.686Z,64.6
2023-08-17T00:50:47.982Z,43.6
2023-08-17T00:52:04.287Z,44.1
2023-08-17T00:53:20.580Z,41.2
2023-08-17T00:54:36.871Z,42
2023-08-17T00:55:53.130Z,42.2
2023-08-17T00:57:08.477Z,41.7
2023-08-17T00:58:24.755Z,41.2
2023-08-17T00:59:41.070Z,41.2
2023-08-17T01:00:57.365Z,41.5
2023-08-17T01:02:13.654Z,42
2023-08-17T01:03:29.933Z,47.8
2023-08-17T01:04:46.233Z,56
2023-08-17T01:06:02.525Z,41.7
2023-08-17T01:07:18.800Z,41.8
2023-08-17T01:08:35.116Z,42
2023-08-17T01:09:51.419Z,42
2023-08-17T01:11:07.704Z,40.9
2023-08-17T01:12:24.008Z,40.7
2023-08-17T01:13:39.318Z,42.2
2023-08-17T01:14:55.618Z,41.7
2023-08-17T01:16:11.891Z,41
2023-08-17T01:17:28.198Z,41.7
2023-08-17T01:18:44.493Z,41.2
2023-08-17T01:20:00.778Z,41.2
2023-08-17T01:21:17.042Z,41.7
2023-08-17T01:22:33.368Z,41.5
2023-08-17T01:23:49.634Z,41
2023-08-17T01:25:05.953Z,41.4
2023-08-17T01:26:22.252Z,40.9
2023-08-17T01:27:38.509Z,40.9
2023-08-17T01:28:54.755Z,40.4
2023-08-17T01:30:10.002Z,40.7
2023-08-17T01:31:26.294Z,42
2023-08-17T01:32:42.596Z,47.8
2023-08-17T01:33:58.892Z,46.8
2023-08-17T01:35:15.174Z,41.7
2023-08-17T01:36:31.479Z,41
2023-08-17T01:37:47.765Z,41.4
2023-08-17T01:39:04.065Z,41.2
2023-08-17T01:40:20.360Z,41.7
2023-08-17T01:41:36.653Z,41.8
2023-08-17T01:42:52.951Z,41.8
2023-08-17T01:44:09.236Z,44.7
2023-08-17T01:45:25.528Z,41.4
2023-08-17T01:46:40.834Z,42.2
2023-08-17T01:47:57.133Z,43.1
2023-08-17T01:49:13.433Z,45.9
2023-08-17T01:50:29.722Z,50.7
2023-08-17T01:51:46.025Z,43.8
2023-08-17T01:53:02.313Z,41.5
2023-08-17T01:54:18.607Z,41.4
2023-08-17T01:55:34.901Z,43.5
2023-08-17T01:56:51.000Z,40.6
2023-08-17T01:58:07.494Z,60.9
2023-08-17T01:59:23.775Z,42.2
2023-08-17T02:00:40.069Z,41.7
2023-08-17T02:01:56.367Z,44.7
2023-08-17T02:03:11.681Z,41.2
2023-08-17T02:04:27.978Z,42
2023-08-17T02:05:44.282Z,41.4
2023-08-17T02:07:00.559Z,41
2023-08-17T02:08:16.000Z,44.9
2023-08-17T02:09:33.151Z,41.8
2023-08-17T02:10:49.449Z,41.7
2023-08-17T02:12:05.738Z,41.4
2023-08-17T02:13:22.026Z,41.2
2023-08-17T02:14:38.332Z,41.2
2023-08-17T02:15:54.628Z,41.2
2023-08-17T02:17:10.927Z,43.6
2023-08-17T02:18:27.218Z,45.1
2023-08-17T02:19:42.519Z,42
2023-08-17T02:20:58.818Z,43.1
2023-08-17T02:22:15.122Z,43.9
2023-08-17T02:23:31.408Z,42.7
2023-08-17T02:24:47.692Z,43.9
2023-08-17T02:26:03.997Z,41.5
2023-08-17T02:27:20.282Z,43.1
2023-08-17T02:28:36.588Z,43.8
2023-08-17T02:29:52.866Z,44.7
2023-08-17T02:31:09.169Z,44.7
2023-08-17T02:32:25.464Z,45.1
2023-08-17T02:33:41.747Z,45.6
2023-08-17T02:34:58.048Z,44.6
2023-08-17T02:36:13.371Z,43.5
2023-08-17T02:37:29.648Z,44.4
2023-08-17T02:38:45.941Z,53.3
2023-08-17T02:40:02.240Z,44.1
2023-08-17T02:41:18.545Z,52.6
2023-08-17T02:42:34.827Z,44.9
2023-08-17T02:43:51.121Z,44.7
2023-08-17T02:45:07.425Z,44.9
2023-08-17T02:46:23.720Z,44.7
2023-08-17T02:47:40.012Z,45.9
2023-08-17T02:48:56.309Z,56.3
2023-08-17T02:50:12.567Z,44.7
2023-08-17T02:51:28.899Z,48.6
2023-08-17T02:52:44.204Z,44.3
2023-08-17T02:54:00.503Z,45.6
2023-08-17T02:55:16.785Z,45.2
2023-08-17T02:56:33.079Z,43.8
2023-08-17T02:57:49.386Z,47.6
2023-08-17T02:59:05.674Z,45.2
2023-08-17T03:00:21.973Z,45.6
2023-08-17T03:01:38.251Z,44.9
2023-08-17T03:02:54.553Z,45.1
2023-08-17T03:04:10.846Z,46.2
2023-08-17T03:05:27.134Z,44.7
2023-08-17T03:06:43.437Z,44.7
2023-08-17T03:07:59.736Z,43.6
2023-08-17T03:09:15.034Z,44.6
2023-08-17T03:10:31.325Z,43.5
2023-08-17T03:11:47.638Z,51.2
2023-08-17T03:13:03.931Z,45.2
2023-08-17T03:14:20.207Z,46.8
2023-08-17T03:15:36.503Z,48.6
2023-08-17T03:16:52.805Z,49.9
2023-08-17T03:18:09.105Z,47.5
2023-08-17T03:19:25.404Z,47.2
2023-08-17T03:20:41.679Z,52.5
2023-08-17T03:21:57.984Z,46.8
2023-08-17T03:23:14.280Z,45.9
2023-08-17T03:24:30.572Z,48.3
2023-08-17T03:25:45.879Z,50.1
2023-08-17T03:27:02.165Z,49.4
2023-08-17T03:28:18.477Z,45.4
2023-08-17T03:29:34.763Z,48.3
2023-08-17T03:30:51.062Z,46
2023-08-17T03:32:07.344Z,45.6
2023-08-17T03:33:23.640Z,47.2
2023-08-17T03:34:39.942Z,48.3
2023-08-17T03:35:56.238Z,49.9
2023-08-17T03:37:12.518Z,49.1
2023-08-17T03:38:28.828Z,48
2023-08-17T03:39:45.112Z,47.6
2023-08-17T03:41:01.417Z,47.2
2023-08-17T03:42:16.730Z,48.3
2023-08-17T03:43:33.004Z,46.4
2023-08-17T03:44:49.318Z,50.5
2023-08-17T03:46:05.607Z,46.8
2023-08-17T03:47:21.812Z,47.8
2023-08-17T03:48:38.144Z,46.8
2023-08-17T03:49:54.430Z,44.3
2023-08-17T03:51:10.686Z,48.1
2023-08-17T03:52:26.922Z,44.9
2023-08-17T03:53:43.218Z,44.3
2023-08-17T03:54:59.478Z,47.8
2023-08-17T03:56:15.801Z,45.4
2023-08-17T03:57:32.111Z,45.7
2023-08-17T03:58:47.422Z,48.3
2023-08-17T04:00:03.702Z,47.2
2023-08-17T04:01:19.997Z,48.3
2023-08-17T04:02:36.298Z,48
2023-08-17T04:03:52.542Z,48.8
2023-08-17T04:05:08.791Z,52
2023-08-17T04:06:25.030Z,48.3
2023-08-17T04:07:41.276Z,47.2
2023-08-17T04:08:57.497Z,46.8
2023-08-17T04:10:13.744Z,49.9
2023-08-17T04:11:29.998Z,47.8
2023-08-17T04:12:46.246Z,49.4
2023-08-17T04:14:02.490Z,48.9
2023-08-17T04:15:17.731Z,49.7
2023-08-17T04:16:33.968Z,48.9
2023-08-17T04:17:50.201Z,47.3
2023-08-17T04:19:06.424Z,48.1
2023-08-17T04:20:22.707Z,46.7
2023-08-17T04:21:38.910Z,48.6
2023-08-17T04:22:54.199Z,47
2023-08-17T04:24:10.430Z,46
2023-08-17T04:25:26.674Z,45.9
2023-08-17T04:26:42.914Z,45.7
2023-08-17T04:27:59.167Z,46.8
2023-08-17T04:29:15.407Z,46.2
2023-08-17T04:30:31.000Z,48.8
2023-08-17T04:31:47.880Z,49.1
2023-08-17T04:33:04.157Z,50.7
2023-08-17T04:34:20.474Z,50.2
2023-08-17T04:35:36.768Z,55.4
2023-08-17T04:36:53.071Z,53
2023-08-17T04:38:09.363Z,48.6
2023-08-17T04:39:24.673Z,47.8
2023-08-17T04:40:40.964Z,48.9
2023-08-17T04:41:57.215Z,47.8
2023-08-17T04:43:13.461Z,49.3
2023-08-17T04:44:29.743Z,48.9
2023-08-17T04:45:46.045Z,47.8
2023-08-17T04:47:02.341Z,49.9
2023-08-17T04:48:18.636Z,48.9
2023-08-17T04:49:34.918Z,52.8
2023-08-17T04:50:51.174Z,57
2023-08-17T04:52:07.403Z,60.4
2023-08-17T04:53:23.657Z,58.8
2023-08-17T04:54:39.896Z,64.4
2023-08-17T04:55:55.138Z,80.7
2023-08-17T04:57:11.393Z,71.7
2023-08-17T04:58:27.613Z,70.7
2023-08-17T04:59:43.867Z,68.6
2023-08-17T05:01:00.112Z,66
2023-08-17T05:02:16.341Z,65.5
2023-08-17T05:03:32.555Z,66.3
2023-08-17T05:04:48.830Z,59.9
2023-08-17T05:06:05.070Z,55.9
2023-08-17T05:07:21.307Z,60.1
2023-08-17T05:08:37.535Z,58.9
2023-08-17T05:09:53.782Z,57.2
2023-08-17T05:11:10.023Z,65
2023-08-17T05:12:25.264Z,54.1
2023-08-17T05:13:41.525Z,53.1
2023-08-17T05:14:57.772Z,53.1
2023-08-17T05:16:14.007Z,52.6
2023-08-17T05:17:30.239Z,50.9
2023-08-17T05:18:46.489Z,50.5
2023-08-17T05:20:02.728Z,52.5
2023-08-17T05:21:18.957Z,52
2023-08-17T05:22:35.200Z,49.1
2023-08-17T05:23:51.453Z,52.2
2023-08-17T05:25:07.688Z,48.6
2023-08-17T05:26:23.924Z,55.1
2023-08-17T05:27:40.160Z,51.4
2023-08-17T05:28:55.418Z,55.2
2023-08-17T05:30:11.661Z,50.1
2023-08-17T05:31:27.898Z,48.6
2023-08-17T05:32:44.142Z,50.7
2023-08-17T05:34:00.372Z,49.9
2023-08-17T05:35:16.635Z,51
2023-08-17T05:36:32.856Z,50.1
2023-08-17T05:37:49.093Z,49.4
2023-08-17T05:39:05.342Z,50.4
2023-08-17T05:40:21.575Z,50.2
2023-08-17T05:41:37.816Z,52.3
2023-08-17T05:42:54.059Z,56.7
2023-08-17T05:44:10.297Z,60.1
2023-08-17T05:45:25.551Z,54.7
2023-08-17T05:46:41.812Z,53.6
2023-08-17T05:47:58.049Z,60.7
2023-08-17T05:49:14.285Z,62.5
2023-08-17T05:50:30.528Z,62.6
2023-08-17T05:51:46.767Z,63.6
2023-08-17T05:53:03.006Z,62.1
2023-08-17T05:54:19.252Z,61.5
2023-08-17T05:55:35.475Z,60.4
2023-08-17T05:56:51.720Z,58.4
2023-08-17T05:58:07.969Z,55.2
2023-08-17T05:59:24.176Z,55.5
2023-08-17T06:00:40.451Z,54.1
2023-08-17T06:01:55.691Z,52.5
2023-08-17T06:03:11.949Z,52.6
2023-08-17T06:04:28.177Z,54.1
2023-08-17T06:05:44.400Z,58
2023-08-17T06:07:00.655Z,58.6
2023-08-17T06:08:16.902Z,56.3
2023-08-17T06:09:33.139Z,56.7
2023-08-17T06:10:49.382Z,56.3
2023-08-17T06:12:05.619Z,57.2
2023-08-17T06:13:21.871Z,57.6
2023-08-17T06:14:38.094Z,59.7
2023-08-17T06:15:54.334Z,59.1
2023-08-17T06:17:10.575Z,58.9
2023-08-17T06:18:25.833Z,59.7
2023-08-17T06:19:42.078Z,58.8
2023-08-17T06:20:58.329Z,58.8
2023-08-17T06:22:14.536Z,55.9
2023-08-17T06:23:30.798Z,59.2
2023-08-17T06:24:47.035Z,57.8
2023-08-17T06:26:03.287Z,60.2
2023-08-17T06:27:19.513Z,58.8
2023-08-17T06:28:35.742Z,56.3
2023-08-17T06:29:51.973Z,58
2023-08-17T06:31:08.237Z,59.4
2023-08-17T06:32:24.474Z,58.1
2023-08-17T06:33:40.713Z,58
2023-08-17T06:34:55.970Z,55.7
2023-08-17T06:36:12.216Z,54.3
2023-08-17T06:37:28.462Z,53
2023-08-17T06:38:44.691Z,53.4
2023-08-17T06:40:00.933Z,53
2023-08-17T06:41:17.187Z,51
2023-08-17T06:42:33.425Z,49.9
2023-08-17T06:43:49.666Z,49.3
2023-08-17T06:45:05.898Z,49.4
2023-08-17T06:46:22.142Z,51
2023-08-17T06:47:38.389Z,48.5
2023-08-17T06:48:54.620Z,49.4
2023-08-17T06:50:10.867Z,65.2
2023-08-17T06:51:26.105Z,48.5
2023-08-17T06:52:42.335Z,48.5
2023-08-17T06:53:58.579Z,48.9
2023-08-17T06:55:14.828Z,48.1
2023-08-17T06:56:31.069Z,47.5
2023-08-17T06:57:47.308Z,46.5
2023-08-17T06:59:03.541Z,48.1
2023-08-17T07:00:19.773Z,48
2023-08-17T07:01:36.025Z,47.8
2023-08-17T07:02:52.255Z,48.9
2023-08-17T07:04:08.504Z,48
2023-08-17T07:05:24.743Z,48.5
2023-08-17T07:06:40.982Z,47.2
2023-08-17T07:07:56.243Z,48.6
2023-08-17T07:09:12.477Z,48.5
2023-08-17T07:10:28.722Z,48.9
2023-08-17T07:11:44.967Z,48.8
2023-08-17T07:13:01.194Z,65.9
2023-08-17T07:14:17.445Z,47.3
2023-08-17T07:15:33.673Z,48.8
2023-08-17T07:16:49.910Z,47.8
2023-08-17T07:18:06.162Z,48.1
2023-08-17T07:19:22.405Z,49.3
2023-08-17T07:20:38.644Z,48.5
2023-08-17T07:21:54.891Z,47.8
2023-08-17T07:23:11.125Z,47.5
2023-08-17T07:24:26.367Z,47.5
2023-08-17T07:25:42.628Z,46.5
2023-08-17T07:26:58.853Z,47.3
2023-08-17T07:28:15.087Z,46.8
2023-08-17T07:29:31.337Z,48.8
2023-08-17T07:30:47.574Z,46.4
2023-08-17T07:32:03.819Z,44.7
2023-08-17T07:33:20.062Z,46.4
2023-08-17T07:34:36.305Z,44.6
2023-08-17T07:35:52.540Z,44.6
2023-08-17T07:37:08.779Z,44.7
2023-08-17T07:38:25.026Z,46.5
2023-08-17T07:39:41.257Z,45.2
2023-08-17T07:40:56.514Z,48.1
2023-08-17T07:42:12.758Z,56.2
2023-08-17T07:43:29.001Z,57.2
2023-08-17T07:44:45.226Z,60.2
2023-08-17T07:46:01.475Z,57.2
2023-08-17T07:47:17.712Z,53.9
2023-08-17T07:48:33.957Z,52.2
2023-08-17T07:49:50.208Z,54.3
2023-08-17T07:51:06.436Z,51.7
2023-08-17T07:52:22.679Z,48.9
2023-08-17T07:53:38.920Z,49.9
2023-08-17T07:54:55.167Z,48
2023-08-17T07:56:11.399Z,46.5
2023-08-17T07:57:26.649Z,46.4
2023-08-17T07:58:42.900Z,48.8
2023-08-17T07:59:59.000Z,52.3
2023-08-17T08:01:15.367Z,45.9
2023-08-17T08:02:31.613Z,45.7
2023-08-17T08:03:47.852Z,45.1
2023-08-17T08:05:04.092Z,50.9
2023-08-17T08:06:20.341Z,51.2
2023-08-17T08:07:36.570Z,49.4
2023-08-17T08:08:52.813Z,47.3
2023-08-17T08:10:09.058Z,47.2
2023-08-17T08:11:25.286Z,45.1
2023-08-17T08:12:41.533Z,45.4
2023-08-17T08:13:56.789Z,46.2
2023-08-17T08:15:13.042Z,46.4
2023-08-17T08:16:29.275Z,46.4
2023-08-17T08:17:45.518Z,44.7
2023-08-17T08:19:01.765Z,46.5
2023-08-17T08:20:18.001Z,46.2
2023-08-17T08:21:34.225Z,47.8
2023-08-17T08:22:50.484Z,45.7
2023-08-17T08:24:06.724Z,44.4
2023-08-17T08:25:22.945Z,44.7
2023-08-17T08:26:39.203Z,44.6
2023-08-17T08:27:55.431Z,45.1
2023-08-17T08:29:11.680Z,83.6
2023-08-17T08:30:26.926Z,84.2
2023-08-17T08:31:43.169Z,84.4
2023-08-17T08:32:59.416Z,85.5
2023-08-17T08:34:15.659Z,84.7
2023-08-17T08:35:31.902Z,85.2
2023-08-17T08:36:48.123Z,85
2023-08-17T08:38:03.405Z,85.2
2023-08-17T08:39:19.000Z,85.2
2023-08-17T08:40:35.879Z,84.7
2023-08-17T08:41:52.119Z,85.2
2023-08-17T08:43:08.359Z,83.7
2023-08-17T08:44:24.590Z,85.2
2023-08-17T08:45:40.838Z,84.7
2023-08-17T08:46:57.084Z,85
2023-08-17T08:48:13.326Z,84.7
2023-08-17T08:49:29.548Z,84.1
2023-08-17T08:50:45.794Z,84.9
2023-08-17T08:52:02.040Z,84.4
2023-08-17T08:53:18.288Z,85.4
2023-08-17T08:54:33.535Z,85.2
2023-08-17T08:55:49.776Z,85
2023-08-17T08:57:06.021Z,83.3
2023-08-17T08:58:22.256Z,84.7
2023-08-17T08:59:38.505Z,46.4
2023-08-17T09:00:54.738Z,47.5
2023-08-17T09:02:10.977Z,48.5
2023-08-17T09:03:27.208Z,45.2
2023-08-17T09:04:43.455Z,45.6
2023-08-17T09:05:59.700Z,84.4
2023-08-17T09:07:15.937Z,84.5
2023-08-17T09:08:32.177Z,84.9
2023-08-17T09:09:48.409Z,84.9
2023-08-17T09:11:03.672Z,84.7
2023-08-17T09:12:19.924Z,84.7
2023-08-17T09:13:36.151Z,84.5
2023-08-17T09:14:52.398Z,84.7
2023-08-17T09:16:08.624Z,84.9
2023-08-17T09:17:24.873Z,84.9
2023-08-17T09:18:41.107Z,83.1
2023-08-17T09:19:57.348Z,84.7
2023-08-17T09:21:13.599Z,85
2023-08-17T09:22:29.846Z,85
2023-08-17T09:23:46.072Z,84.7
2023-08-17T09:25:02.311Z,85.2
2023-08-17T09:26:18.551Z,45.2
2023-08-17T09:27:33.833Z,44.7
2023-08-17T09:28:50.075Z,46.4
2023-08-17T09:30:06.309Z,44.1
2023-08-17T09:31:22.549Z,44.4
2023-08-17T09:32:38.783Z,45.1
2023-08-17T09:33:55.034Z,45.1
2023-08-17T09:35:11.273Z,44.6
2023-08-17T09:36:27.499Z,44.1
2023-08-17T09:37:43.753Z,44.1
2023-08-17T09:38:59.982Z,44.9
2023-08-17T09:40:16.229Z,44.7
2023-08-17T09:41:32.469Z,45.6
2023-08-17T09:42:48.714Z,44.7
2023-08-17T09:44:03.958Z,44.7
2023-08-17T09:45:20.216Z,44.3
2023-08-17T09:46:36.437Z,45.2
2023-08-17T09:47:52.690Z,44.1
2023-08-17T09:49:08.934Z,43.9
2023-08-17T09:50:25.169Z,43.9
2023-08-17T09:51:41.397Z,43.8
2023-08-17T09:52:57.650Z,44.3
2023-08-17T09:54:13.000Z,44.1
2023-08-17T09:55:30.119Z,44.1
2023-08-17T09:56:46.360Z,43.6
2023-08-17T09:58:02.598Z,43.8
2023-08-17T09:59:18.000Z,45.1
2023-08-17T10:00:34.105Z,44.6
2023-08-17T10:01:50.339Z,44.7
2023-08-17T10:03:06.584Z,44.7
2023-08-17T10:04:22.826Z,46.2
2023-08-17T10:05:39.069Z,44.4
2023-08-17T10:06:55.297Z,44.3
2023-08-17T10:08:11.556Z,47.3
2023-08-17T10:09:27.784Z,47.2
2023-08-17T10:10:44.033Z,43.5
2023-08-17T10:12:00.263Z,46.2
2023-08-17T10:13:16.504Z,46.7
2023-08-17T10:14:32.752Z,44.4
2023-08-17T10:15:48.994Z,45.1
2023-08-17T10:17:04.252Z,44.1
2023-08-17T10:18:20.481Z,44.1
2023-08-17T10:19:36.734Z,43.8
2023-08-17T10:20:52.975Z,46.8
2023-08-17T10:22:09.211Z,44.3
2023-08-17T10:23:25.451Z,45.1
2023-08-17T10:24:41.695Z,43.8
2023-08-17T10:25:57.926Z,43
2023-08-17T10:27:14.179Z,44.9
2023-08-17T10:28:30.415Z,46.7
2023-08-17T10:29:46.654Z,43.8
2023-08-17T10:31:02.896Z,44.4
2023-08-17T10:32:19.125Z,43.8
2023-08-17T10:33:34.389Z,45.1
2023-08-17T10:34:50.631Z,43.1
2023-08-17T10:36:06.874Z,44.1
2023-08-17T10:37:23.106Z,43.3
2023-08-17T10:38:39.338Z,44.3
2023-08-17T10:39:55.599Z,43.6
2023-08-17T10:41:11.834Z,43.6
2023-08-17T10:42:28.062Z,43.5
2023-08-17T10:43:44.310Z,43.6
2023-08-17T10:45:00.551Z,43.3
2023-08-17T10:46:16.791Z,44.4
2023-08-17T10:47:33.023Z,43
2023-08-17T10:48:49.265Z,44.1
2023-08-17T10:50:04.538Z,43.1
2023-08-17T10:51:20.776Z,44.1
2023-08-17T10:52:37.020Z,44.4
2023-08-17T10:53:53.265Z,43.5
2023-08-17T10:55:09.508Z,43.3
2023-08-17T10:56:25.740Z,43
2023-08-17T10:57:41.979Z,44.1
2023-08-17T10:58:58.215Z,44.1
2023-08-17T11:00:14.454Z,43.6
2023-08-17T11:01:30.706Z,45.1
2023-08-17T11:02:46.952Z,43.3
2023-08-17T11:04:03.174Z,44.1
2023-08-17T11:05:19.417Z,44.4
2023-08-17T11:06:34.679Z,43.6
2023-08-17T11:07:50.910Z,43
2023-08-17T11:09:07.162Z,43.5
2023-08-17T11:10:23.410Z,44.7
2023-08-17T11:11:39.642Z,43.9
2023-08-17T11:12:55.889Z,45.7
2023-08-17T11:14:12.126Z,45.1
2023-08-17T11:15:28.351Z,43.3
2023-08-17T11:16:44.598Z,45.2
2023-08-17T11:18:00.830Z,43.9
2023-08-17T11:19:17.081Z,45.2
2023-08-17T11:20:33.322Z,45.1
2023-08-17T11:21:49.561Z,46.5
2023-08-17T11:23:04.817Z,45.2
2023-08-17T11:24:21.066Z,45.4
2023-08-17T11:25:37.303Z,44.4
2023-08-17T11:26:53.548Z,44.1
2023-08-17T11:28:09.783Z,44.7
2023-08-17T11:29:26.022Z,46.2
2023-08-17T11:30:42.261Z,45.1
2023-08-17T11:31:58.517Z,44.3
2023-08-17T11:33:14.748Z,43.8
2023-08-17T11:34:30.989Z,48.3
2023-08-17T11:35:47.223Z,43.8
2023-08-17T11:37:03.457Z,45.2
2023-08-17T11:38:19.699Z,44.4
2023-08-17T11:39:34.967Z,44.9
2023-08-17T11:40:51.203Z,44.4
2023-08-17T11:42:07.447Z,43.8
2023-08-17T11:43:23.684Z,43.9
2023-08-17T11:44:39.931Z,43.6
2023-08-17T11:45:56.156Z,43.8
2023-08-17T11:47:12.400Z,44.7
2023-08-17T11:48:28.637Z,43.1
2023-08-17T11:49:44.880Z,44.6
2023-08-17T11:51:01.119Z,44.1
2023-08-17T11:52:17.368Z,43.5
2023-08-17T11:53:33.598Z,43.8
2023-08-17T11:54:49.840Z,49.1
2023-08-17T11:56:05.104Z,45.2
2023-08-17T11:57:21.340Z,43.9
2023-08-17T11:58:37.591Z,45.2
2023-08-17T11:59:53.822Z,45.9
2023-08-17T12:01:10.061Z,50.1
2023-08-17T12:02:26.308Z,44.3
2023-08-17T12:03:42.561Z,43.1
2023-08-17T12:04:58.804Z,43.9
2023-08-17T12:06:15.039Z,45.1
2023-08-17T12:07:31.289Z,43.9
2023-08-17T12:08:47.519Z,45.2
2023-08-17T12:10:03.754Z,43.3
2023-08-17T12:11:20.002Z,44.3
2023-08-17T12:12:35.249Z,44.4
2023-08-17T12:13:51.496Z,44.1
2023-08-17T12:15:07.739Z,44.1
2023-08-17T12:16:23.971Z,43.9
2023-08-17T12:17:40.224Z,44.7
2023-08-17T12:18:56.462Z,45.2
2023-08-17T12:20:12.699Z,45.1
2023-08-17T12:21:28.941Z,44.9
2023-08-17T12:22:45.179Z,44.4
2023-08-17T12:24:01.416Z,44.3
2023-08-17T12:25:17.658Z,43.8
2023-08-17T12:26:33.890Z,45.4
2023-08-17T12:29:06.377Z,43.3
2023-08-17T12:30:22.630Z,45.1
2023-08-17T12:31:37.872Z,44.1
2023-08-17T12:32:54.108Z,46.2
2023-08-17T12:34:10.352Z,45.1
2023-08-17T12:35:26.588Z,44.6
2023-08-17T12:36:42.844Z,45.1
2023-08-17T12:37:59.079Z,43.6
2023-08-17T12:39:15.313Z,44.3
2023-08-17T12:40:31.557Z,44.1
2023-08-17T12:41:47.790Z,45.4
2023-08-17T12:43:04.042Z,45.6
2023-08-17T12:44:20.280Z,43.6
2023-08-17T12:45:36.526Z,44.6
2023-08-17T12:46:52.763Z,44.3
2023-08-17T12:48:08.007Z,43.9
2023-08-17T12:49:24.245Z,43.5
2023-08-17T12:50:40.491Z,43.9
2023-08-17T12:51:56.728Z,44.3
2023-08-17T12:53:12.004Z,43.1
2023-08-17T12:55:44.485Z,41.7
2023-08-17T12:57:00.710Z,43.5
2023-08-17T12:58:16.952Z,42
2023-08-17T12:59:33.187Z,44.3
2023-08-17T13:00:49.434Z,45.7
2023-08-17T13:02:05.681Z,41.8
2023-08-17T13:03:21.914Z,44.1
2023-08-17T13:04:38.158Z,43.8
2023-08-17T13:05:54.393Z,42.2
2023-08-17T13:07:10.644Z,43.8
2023-08-17T13:08:26.887Z,43
2023-08-17T13:09:42.142Z,43.3
2023-08-17T13:10:58.384Z,42.7
2023-08-17T13:12:14.618Z,47.8
2023-08-17T13:13:30.859Z,44.9
2023-08-17T13:14:47.086Z,43.1
2023-08-17T13:16:03.332Z,44.6
2023-08-17T13:17:19.578Z,43
2023-08-17T13:18:35.811Z,43.3
2023-08-17T13:19:52.058Z,41.8
2023-08-17T13:21:08.301Z,45.2
2023-08-17T13:22:24.537Z,43.6
2023-08-17T13:23:40.773Z,44.1
2023-08-17T13:24:57.008Z,45.2
2023-08-17T13:26:12.268Z,45.9
2023-08-17T13:27:28.517Z,44.3
2023-08-17T13:28:44.756Z,45.2
2023-08-17T13:30:00.992Z,43.5
2023-08-17T13:31:17.239Z,43.8
2023-08-17T13:33:49.720Z,43.9
2023-08-17T13:35:05.960Z,43.9
2023-08-17T13:36:22.194Z,45.7
2023-08-17T13:37:38.430Z,46
2023-08-17T13:38:54.673Z,43.1
2023-08-17T13:40:10.905Z,46.4
2023-08-17T13:41:27.157Z,44.3
2023-08-17T13:42:42.409Z,43.6
2023-08-17T13:43:58.645Z,43.6
2023-08-17T13:45:14.891Z,44.7
2023-08-17T13:46:31.126Z,44.4
2023-08-17T13:47:47.368Z,43.8
2023-08-17T13:49:03.616Z,43.3
2023-08-17T13:50:19.853Z,43
2023-08-17T13:51:36.095Z,42.7
2023-08-17T13:52:52.334Z,43.8
2023-08-17T13:54:08.578Z,43.3
2023-08-17T13:55:24.811Z,43.8
2023-08-17T13:56:41.057Z,42.7
2023-08-17T13:57:57.293Z,41.2
2023-08-17T13:59:12.536Z,43.5
2023-08-17T14:00:28.796Z,41.8
2023-08-17T14:01:45.018Z,44.6
2023-08-17T14:03:01.261Z,42
2023-08-17T14:04:17.509Z,44.9
2023-08-17T14:05:33.753Z,42.2
2023-08-17T14:06:49.981Z,42.3
2023-08-17T14:08:06.238Z,44.3
2023-08-17T14:09:22.477Z,43
2023-08-17T14:10:38.716Z,47.8
2023-08-17T14:11:54.952Z,51.8
2023-08-17T14:13:11.187Z,49.4
2023-08-17T14:14:27.438Z,46.8
2023-08-17T14:15:42.677Z,44.3
2023-08-17T14:16:58.923Z,43.5
2023-08-17T14:18:15.174Z,43.9
2023-08-17T14:19:31.408Z,42.7
2023-08-17T14:20:47.655Z,43.8
2023-08-17T14:22:03.887Z,43
2023-08-17T14:23:20.136Z,43.5
2023-08-17T14:24:36.371Z,42.5
2023-08-17T14:25:52.613Z,44.1
2023-08-17T14:27:08.850Z,43
2023-08-17T14:28:25.092Z,45.1
2023-08-17T14:29:41.328Z,46.8
2023-08-17T14:30:57.568Z,42.3
2023-08-17T14:32:12.833Z,43.6
2023-08-17T14:33:29.054Z,43
2023-08-17T14:34:45.300Z,51.2
2023-08-17T14:36:01.544Z,45.9
2023-08-17T14:37:17.786Z,44.4
2023-08-17T14:38:34.031Z,43
2023-08-17T14:39:50.260Z,44.4
2023-08-17T14:41:06.513Z,42
2023-08-17T14:42:22.742Z,43.5
2023-08-17T14:43:38.988Z,43.1
2023-08-17T14:46:11.467Z,42.8
2023-08-17T14:47:27.710Z,43.1
2023-08-17T14:48:42.966Z,44.1
2023-08-17T14:49:59.211Z,42.5
2023-08-17T14:51:15.440Z,43.3
2023-08-17T14:52:31.685Z,41.7
2023-08-17T14:53:47.927Z,41.5
2023-08-17T14:55:04.162Z,43.6
2023-08-17T14:56:20.404Z,42.2
2023-08-17T14:57:36.644Z,45.2
2023-08-17T14:58:52.883Z,43.1
2023-08-17T15:00:09.116Z,43
2023-08-17T15:01:25.362Z,42.2
2023-08-17T15:02:41.611Z,42.7
2023-08-17T15:03:57.839Z,42.7
2023-08-17T15:05:13.108Z,43.9
2023-08-17T15:06:29.339Z,43.6
2023-08-17T15:07:45.583Z,42.8
2023-08-17T15:09:01.825Z,44.7
2023-08-17T15:10:18.052Z,46
2023-08-17T15:11:34.300Z,43.5
2023-08-17T15:12:50.535Z,45.9
2023-08-17T15:14:06.781Z,43.1
2023-08-17T15:15:23.020Z,44.3
2023-08-17T15:16:39.260Z,45.4
2023-08-17T15:17:55.505Z,44.3
2023-08-17T15:19:11.735Z,43.1
2023-08-17T15:20:27.973Z,43.8
2023-08-17T15:21:43.238Z,43
2023-08-17T15:22:59.485Z,43.8
2023-08-17T15:24:15.713Z,44.7
2023-08-17T15:25:31.959Z,47.2
2023-08-17T15:26:48.191Z,44.7
2023-08-17T15:28:04.432Z,48.1
2023-08-17T15:29:20.675Z,45.2
2023-08-17T15:30:36.912Z,43.8
2023-08-17T15:31:53.152Z,43.6
2023-08-17T15:33:09.405Z,46.5
2023-08-17T15:34:25.630Z,50.1
2023-08-17T15:35:41.869Z,44.4
2023-08-17T15:36:58.119Z,45.2
2023-08-17T15:38:13.378Z,43
2023-08-17T15:39:29.605Z,44.9
2023-08-17T15:40:45.855Z,46.7
2023-08-17T15:42:02.090Z,43.1
2023-08-17T15:43:18.336Z,46.2
2023-08-17T15:44:34.571Z,46.8
2023-08-17T15:45:50.814Z,44.9
2023-08-17T15:47:07.056Z,45.1
2023-08-17T15:48:23.289Z,45.2
2023-08-17T15:49:39.530Z,43.5
2023-08-17T15:50:55.768Z,45.6
2023-08-17T15:52:12.010Z,46.4
2023-08-17T15:53:28.000Z,42.2
2023-08-17T15:54:43.510Z,45.1
2023-08-17T15:55:59.745Z,44.7
2023-08-17T15:57:15.990Z,45.1
2023-08-17T15:58:32.231Z,47.8
2023-08-17T15:59:48.464Z,45.2
2023-08-17T16:01:04.699Z,44.7
2023-08-17T16:02:20.000Z,43.9
2023-08-17T16:03:37.199Z,45.2
2023-08-17T16:04:53.419Z,46.2
2023-08-17T16:06:09.666Z,46.8
2023-08-17T16:07:25.911Z,44.1
2023-08-17T16:08:42.149Z,44.4
2023-08-17T16:09:58.381Z,45.7
2023-08-17T16:11:13.645Z,44.1
2023-08-17T16:12:29.884Z,45.9
2023-08-17T16:13:46.137Z,45.4
2023-08-17T16:15:02.375Z,58.4
2023-08-17T16:16:18.614Z,45.9
2023-08-17T16:17:34.849Z,46.2
2023-08-17T16:18:51.089Z,44.3
2023-08-17T16:20:07.325Z,48.6
2023-08-17T16:21:23.575Z,45.9
2023-08-17T16:22:39.816Z,45.6
2023-08-17T16:23:56.047Z,43.5
2023-08-17T16:25:12.284Z,43.8
2023-08-17T16:26:28.524Z,46.4
2023-08-17T16:27:43.776Z,43
2023-08-17T16:29:00.023Z,45.1
2023-08-17T16:30:16.270Z,44.1
2023-08-17T16:31:32.498Z,45.1
2023-08-17T16:32:48.737Z,44.1
2023-08-17T16:34:04.977Z,45.4
2023-08-17T16:35:21.220Z,46.5
2023-08-17T16:36:37.465Z,45.1
2023-08-17T16:37:53.704Z,47
2023-08-17T16:39:09.954Z,43.9
2023-08-17T16:40:26.195Z,44.3
2023-08-17T16:41:42.418Z,47.8
2023-08-17T16:42:58.667Z,43.9
2023-08-17T16:44:13.910Z,43.9
2023-08-17T16:45:30.159Z,43.6
2023-08-17T16:46:46.398Z,47.8
2023-08-17T16:48:02.638Z,45.2
2023-08-17T16:49:18.884Z,43.5
2023-08-17T16:50:35.131Z,47
2023-08-17T16:51:51.355Z,44.7
2023-08-17T16:53:07.610Z,43.9
2023-08-17T16:54:23.846Z,43.9
2023-08-17T16:55:40.089Z,44.7
2023-08-17T16:56:56.321Z,44.3
2023-08-17T16:58:12.567Z,47.3
2023-08-17T16:59:28.799Z,48.5
2023-08-17T17:00:44.053Z,42.2
2023-08-17T17:02:00.295Z,46.2
2023-08-17T17:03:16.535Z,44.9
2023-08-17T17:04:32.778Z,41.8
2023-08-17T17:05:49.010Z,45.7
2023-08-17T17:07:05.256Z,45.4